AirNav   Everest Fuels
 
 959 users online  

4Y9 Eagles Landing Airport
Harrietta, Michigan, USA

GOING TO HARRIETTA?


FAA INFORMATION EFFECTIVE 11 AUGUST 2022

Location

FAA Identifier: 4Y9
Lat/Long: 44-18-27.8950N 085-46-19.3500W
44-18.464917N 085-46.322500W
44.3077486,-85.7720417
(estimated)
Elevation: 993 ft. / 302.7 m (surveyed)
Variation: 04W (1985)
From city: 3 miles W of HARRIETTA, MI
Time zone: UTC -4 (UTC -5 during Standard Time)
Zip code: 49638

Airport Operations

Airport use: Open to the public
Activation date: 02/1972
Control tower: no
ARTCC: MINNEAPOLIS CENTER
FSS: LANSING FLIGHT SERVICE STATION
NOTAMs facility: LAN (NOTAM-D service available)
Attendance: UNATNDD
Wind indicator: yes
Segmented circle: no

Airport Communications

CTAF: 122.9
WX AWOS-3 at CAD (15 nm E): 128.325 (231-779-9536)

Nearby radio navigation aids

VOR radial/distance  VOR name  Freq  Var
TVCr206/23.6TRAVERSE CITY VOR/DME114.6002W

 
NDB name  Hdg/Dist  Freq  Var  ID
WEXOR298/10.533604WMA -- .-

Airport Services

Airframe service: NONE
Powerplant service: NONE
Bottled oxygen: NONE
Bulk oxygen: NONE

Runway Information

Runway 8/26

Dimensions: 2400 x 100 ft. / 732 x 30 m
Surface: turf, in poor condition
ROUGH & UNEVEN.
Runway edge markings: 3 FT YELLOW CONES.
RUNWAY 8  RUNWAY 26
Latitude: 44-18.432500N44-18.497333N
Longitude: 085-46.594000W085-46.051000W
Elevation: 975.0 ft.993.0 ft.
Traffic pattern: leftleft
Runway end identifier lights: nono
Obstructions: 68 ft. trees, 125 ft. left of centerline, 1:1 slope to clear40 ft. trees, 114 ft. left of centerline, 1:1 slope to clear

Airport Ownership and Management from official FAA records

Ownership: Privately-owned
Owner: KEN WARD
4196 E STATE RD
PORT CLINTON, OH 43452-2631
Phone 419-341-1503
Manager: MIKE WOODLEY
9491 W 30 RD
HARRIETTA, MI 49638-9408
Phone 586-944-7101

Airport Operational Statistics

Aircraft based on the field: 2
Single engine airplanes: 2
    
Aircraft operations: avg 50/month *
67% transient general aviation
33% local general aviation
* for 12-month period ending 31 December 2020

Additional Remarks

60 FT TREES BOTH SIDES OF RWY, 100 FT FM RWY CNTRLN.
LRG DEPRESSION EAST OF RWY 26.
NO SNOW REMOVAL.
FOR CD CTC MINNEAPOLIS ARTCC AT 651-463-5588.

Instrument Procedures

There are no published instrument procedures at 4Y9.

Some nearby airports with instrument procedures:

KCAD - Wexford County Airport (15 nm E)
KMBL - Manistee County/Blacker Airport (21 nm W)
7D3 - Baldwin Municipal Airport (26 nm S)
KFKS - Frankfort Dow Memorial Field (26 nm NW)
KTVC - Cherry Capital Airport (27 nm N)
 
Loc | Ops | Rwys | IFR | FBO | Links
Com | Nav | Svcs | Stats | Notes
Area around 4Y9 (Eagles Landing Airport)
 
Road maps at: MapQuest Bing Google
 
Aerial photo
WARNING: Photo may not be current or correct
Aerial photo of 4Y9 (Eagles Landing Airport)
Photo by Martin Siegwart
Photo taken 02-Oct-2014
looking east.

Do you have a better or more recent aerial photo of Eagles Landing Airport that you would like to share? If so, please send us your photo.

 
Sectional chart

 
Airport distance calculator
Flying to Eagles Landing Airport? Find the distance to fly.

From to 4Y9

Sunrise and sunset
Times for 13-Aug-2022
 Local
(UTC-4)
 Zulu
(UTC)
Morning civil twilight06:1310:13
Sunrise06:4510:45
Sunset20:5100:51
Evening civil twilight21:2301:23

Current date and time
Zulu (UTC)  14-Aug-2022 01:15:36
Local (UTC-4)  13-Aug-2022 21:15:36
 
METAR
KCAD 
15nm E 
140055Z AUTO 13004KT 10SM SCT006 BKN018 OVC034 13/12 A3008 RMK AO2 T01330123
KMBL 
21nm W 
140056Z AUTO 10008KT 10SM OVC050 14/13 A3005 RMK AO2 SLP177 P0004 T01390133
KFKS 
26nm NW 
140055Z AUTO 12008KT 10SM OVC043 15/12 A3005 RMK AO2 T01450122
KTVC 
27nm N 
140053Z 21003KT 10SM BKN027 BKN035 OVC044 17/13 A3007 RMK AO2 SLP181 T01670128
TAF
KMBL 
21nm W 
131720Z 1318/1418 VRB03KT P6SM -RA SCT009 OVC060 TEMPO 1318/1321 BKN009 FM132100 13011KT P6SM VCSH OVC050 FM140700 11009KT P6SM VCSH OVC027 FM140800 11008KT 6SM BR VCSH OVC013 FM141100 10007KT 5SM BR VCSH OVC007 FM141400 08005KT P6SM BKN011
NOTAMs
Click for the latest NOTAMs
NOTAMs are issued by the DoD/FAA and will open in a separate window not controlled by AirNav.

 

 
 

Would you like to see your business listed on this page?

 If your business provides an interesting product or service to pilots, flight crews, aircraft, or users of the Eagles Landing Airport, you should consider listing it here.  To start the listing process, click on the button below
 
Add a business
 

Other Pages about Eagles Landing Airport

Page from the Michigan Airport Directory (PDF)
 
Update a link
 
Copyright © AirNav, LLC. All rights reserved. Privacy Policy  Contact